Decoded Metar for LJMB (MARIBOR in SLOVENIA) (IATA:MBX) | Meteo·Mobile Aviation Weather
aviador You're here:

LJMB Decoded Metar

MARIBOR in SLOVENIA
Report Time2019-02-20 19:30:00
UTC Time2019-02-20 19:48:15
Flight Rules vfr VFR
Wind310° at 02 kt
W.Decomp.*RWY 32: 1.9 kt HW 0.4 kt LCW
W.Rank310° ranks 28
Current wind is below 310° avg. (2.6)
Visibility9999 m
Phenomena:N/A
Clouds:N/A
Expected CloudBase > 1,600 ft AGL from Temp-Dew spread
CeilingNone
Temp06°C (ISA -7)
Dew Point02°C (76% RH)
AAT3.6°C
QNH1025 hPa
Density Alt-312 ft
Elevation869 ft
Report Wrong Elevation
Raw Report
LJMB 201930Z 31002KT CAVOK 06/02 Q1025=

Extra information for LJMB:More info

Metar Taf Metar & Taf Last 4 Metars F.Rules Stats Wind Profile Meteogram Temp Stats Airport Information Weather charts Add Link Nearby VenuesMetar ALERT Operation Metar Decoded Social comments